sensor_id;sensor_type;location;lat;lon;timestamp;P1;durP1;ratioP1;P2;durP2;ratioP2
1747;SDS011;871;47.034;15.394;2022-11-15T05:02:36;72.43;;;26.50;;
1747;SDS011;871;47.034;15.394;2022-11-15T05:05:20;66.50;;;28.20;;
1747;SDS011;871;47.034;15.394;2022-11-15T05:07:46;67.97;;;26.67;;
1747;SDS011;871;47.034;15.394;2022-11-15T05:10:12;71.00;;;26.57;;
1747;SDS011;871;47.034;15.394;2022-11-15T05:12:38;67.60;;;27.80;;
1747;SDS011;871;47.034;15.394;2022-11-15T05:15:04;67.10;;;26.20;;
1747;SDS011;871;47.034;15.394;2022-11-15T05:17:31;67.53;;;26.90;;
1747;SDS011;871;47.034;15.394;2022-11-15T05:19:57;71.10;;;29.00;;
1747;SDS011;871;47.034;15.394;2022-11-15T05:22:23;84.03;;;30.73;;
1747;SDS011;871;47.034;15.394;2022-11-15T05:24:49;87.83;;;32.67;;
1747;SDS011;871;47.034;15.394;2022-11-15T05:27:15;94.00;;;34.07;;
1747;SDS011;871;47.034;15.394;2022-11-15T05:29:41;107.53;;;34.90;;
1747;SDS011;871;47.034;15.394;2022-11-15T05:32:07;106.10;;;37.27;;
1747;SDS011;871;47.034;15.394;2022-11-15T05:34:34;110.13;;;36.83;;
1747;SDS011;871;47.034;15.394;2022-11-15T05:37:00;108.60;;;37.60;;
1747;SDS011;871;47.034;15.394;2022-11-15T05:39:26;101.70;;;35.00;;
1747;SDS011;871;47.034;15.394;2022-11-15T05:41:53;107.77;;;36.63;;
1747;SDS011;871;47.034;15.394;2022-11-15T05:44:21;104.37;;;33.67;;
1747;SDS011;871;47.034;15.394;2022-11-15T05:46:48;103.40;;;36.00;;
1747;SDS011;871;47.034;15.394;2022-11-15T05:49:15;96.47;;;34.93;;
1747;SDS011;871;47.034;15.394;2022-11-15T05:51:42;116.40;;;36.57;;
1747;SDS011;871;47.034;15.394;2022-11-15T05:54:09;119.43;;;36.97;;
1747;SDS011;871;47.034;15.394;2022-11-15T05:56:38;107.90;;;36.90;;
1747;SDS011;871;47.034;15.394;2022-11-15T05:59:06;116.97;;;37.80;;
1747;SDS011;871;47.034;15.394;2022-11-15T06:01:32;104.43;;;35.17;;
1747;SDS011;871;47.034;15.394;2022-11-15T06:03:59;113.77;;;35.43;;
1747;SDS011;871;47.034;15.394;2022-11-15T06:06:26;118.27;;;37.50;;
1747;SDS011;871;47.034;15.394;2022-11-15T06:08:52;123.60;;;37.80;;
1747;SDS011;871;47.034;15.394;2022-11-15T06:11:19;134.50;;;40.00;;
1747;SDS011;871;47.034;15.394;2022-11-15T06:13:45;147.30;;;39.90;;
1747;SDS011;871;47.034;15.394;2022-11-15T06:16:11;135.53;;;44.37;;
1747;SDS011;871;47.034;15.394;2022-11-15T06:18:37;123.03;;;42.07;;
1747;SDS011;871;47.034;15.394;2022-11-15T06:21:03;137.13;;;39.70;;
1747;SDS011;871;47.034;15.394;2022-11-15T06:23:31;137.33;;;40.80;;
1747;SDS011;871;47.034;15.394;2022-11-15T06:25:58;145.77;;;38.37;;
1747;SDS011;871;47.034;15.394;2022-11-15T06:28:27;141.73;;;43.00;;
1747;SDS011;871;47.034;15.394;2022-11-15T06:30:55;141.57;;;41.80;;
1747;SDS011;871;47.034;15.394;2022-11-15T06:33:22;145.53;;;41.97;;
1747;SDS011;871;47.034;15.394;2022-11-15T06:35:48;150.07;;;40.80;;
1747;SDS011;871;47.034;15.394;2022-11-15T06:38:15;160.33;;;44.90;;
1747;SDS011;871;47.034;15.394;2022-11-15T06:40:44;167.23;;;42.40;;
1747;SDS011;871;47.034;15.394;2022-11-15T06:43:10;177.57;;;42.03;;
1747;SDS011;871;47.034;15.394;2022-11-15T06:45:36;217.87;;;45.07;;
1747;SDS011;871;47.034;15.394;2022-11-15T06:48:02;196.73;;;41.47;;
1747;SDS011;871;47.034;15.394;2022-11-15T06:50:28;165.67;;;40.30;;
1747;SDS011;871;47.034;15.394;2022-11-15T06:52:54;272.80;;;44.87;;
1747;SDS011;871;47.034;15.394;2022-11-15T06:55:20;188.77;;;44.07;;
1747;SDS011;871;47.034;15.394;2022-11-15T06:57:50;174.53;;;39.80;;
1747;SDS011;871;47.034;15.394;2022-11-15T07:00:17;134.97;;;35.30;;
1747;SDS011;871;47.034;15.394;2022-11-15T07:02:43;129.53;;;36.80;;
1747;SDS011;871;47.034;15.394;2022-11-15T07:05:10;135.23;;;38.00;;
1747;SDS011;871;47.034;15.394;2022-11-15T07:07:36;125.30;;;42.60;;
1747;SDS011;871;47.034;15.394;2022-11-15T07:10:03;228.93;;;42.47;;
1747;SDS011;871;47.034;15.394;2022-11-15T07:12:29;228.17;;;43.77;;
1747;SDS011;871;47.034;15.394;2022-11-15T07:14:57;206.13;;;44.20;;
1747;SDS011;871;47.034;15.394;2022-11-15T07:17:23;167.57;;;39.23;;
1747;SDS011;871;47.034;15.394;2022-11-15T07:19:49;144.00;;;37.67;;
1747;SDS011;871;47.034;15.394;2022-11-15T07:22:15;165.87;;;37.30;;
1747;SDS011;871;47.034;15.394;2022-11-15T07:24:41;140.30;;;36.97;;
1747;SDS011;871;47.034;15.394;2022-11-15T07:27:07;143.30;;;39.70;;
1747;SDS011;871;47.034;15.394;2022-11-15T07:29:34;133.97;;;38.50;;
1747;SDS011;871;47.034;15.394;2022-11-15T07:32:00;157.53;;;40.20;;
1747;SDS011;871;47.034;15.394;2022-11-15T07:34:26;150.67;;;38.80;;
1747;SDS011;871;47.034;15.394;2022-11-15T07:36:52;151.77;;;36.33;;
1747;SDS011;871;47.034;15.394;2022-11-15T07:39:18;134.87;;;35.20;;
1747;SDS011;871;47.034;15.394;2022-11-15T07:41:44;143.87;;;36.47;;
1747;SDS011;871;47.034;15.394;2022-11-15T07:44:12;145.87;;;36.23;;
1747;SDS011;871;47.034;15.394;2022-11-15T07:46:38;137.57;;;38.07;;
1747;SDS011;871;47.034;15.394;2022-11-15T07:49:04;132.93;;;36.07;;
1747;SDS011;871;47.034;15.394;2022-11-15T07:51:30;173.87;;;41.00;;
1747;SDS011;871;47.034;15.394;2022-11-15T07:53:58;143.20;;;40.13;;
1747;SDS011;871;47.034;15.394;2022-11-15T07:56:24;134.80;;;38.23;;
1747;SDS011;871;47.034;15.394;2022-11-15T07:58:50;153.30;;;38.53;;
1747;SDS011;871;47.034;15.394;2022-11-15T08:01:16;151.07;;;37.47;;
1747;SDS011;871;47.034;15.394;2022-11-15T08:03:42;163.13;;;44.50;;
1747;SDS011;871;47.034;15.394;2022-11-15T08:06:08;148.67;;;40.33;;
1747;SDS011;871;47.034;15.394;2022-11-15T08:08:34;159.20;;;42.00;;
1747;SDS011;871;47.034;15.394;2022-11-15T08:11:00;197.43;;;46.63;;
1747;SDS011;871;47.034;15.394;2022-11-15T08:13:26;167.13;;;44.10;;
1747;SDS011;871;47.034;15.394;2022-11-15T08:15:57;157.77;;;41.57;;
1747;SDS011;871;47.034;15.394;2022-11-15T08:18:23;145.33;;;42.17;;
1747;SDS011;871;47.034;15.394;2022-11-15T08:20:49;168.27;;;43.80;;
1747;SDS011;871;47.034;15.394;2022-11-15T08:23:15;128.57;;;39.73;;
1747;SDS011;871;47.034;15.394;2022-11-15T08:25:41;138.47;;;39.47;;
1747;SDS011;871;47.034;15.394;2022-11-15T08:28:09;125.87;;;37.40;;
1747;SDS011;871;47.034;15.394;2022-11-15T08:30:39;153.77;;;38.30;;
1747;SDS011;871;47.034;15.394;2022-11-15T08:33:09;132.27;;;37.97;;
1747;SDS011;871;47.034;15.394;2022-11-15T08:35:35;139.07;;;37.03;;
1747;SDS011;871;47.034;15.394;2022-11-15T08:38:01;132.00;;;34.80;;
1747;SDS011;871;47.034;15.394;2022-11-15T08:40:28;138.87;;;37.40;;
1747;SDS011;871;47.034;15.394;2022-11-15T08:42:54;150.37;;;40.37;;
1747;SDS011;871;47.034;15.394;2022-11-15T08:45:20;137.83;;;39.43;;
1747;SDS011;871;47.034;15.394;2022-11-15T08:47:47;134.30;;;39.47;;
1747;SDS011;871;47.034;15.394;2022-11-15T08:50:13;128.60;;;38.53;;
1747;SDS011;871;47.034;15.394;2022-11-15T08:52:39;136.40;;;40.97;;
1747;SDS011;871;47.034;15.394;2022-11-15T08:55:05;147.17;;;40.60;;
1747;SDS011;871;47.034;15.394;2022-11-15T08:57:31;154.77;;;41.87;;
1747;SDS011;871;47.034;15.394;2022-11-15T08:59:57;141.27;;;42.07;;
1747;SDS011;871;47.034;15.394;2022-11-15T09:02:23;142.30;;;41.60;;
1747;SDS011;871;47.034;15.394;2022-11-15T09:04:51;120.20;;;36.53;;
1747;SDS011;871;47.034;15.394;2022-11-15T09:07:17;124.17;;;35.50;;
1747;SDS011;871;47.034;15.394;2022-11-15T09:09:43;122.33;;;34.10;;
1747;SDS011;871;47.034;15.394;2022-11-15T09:12:09;131.30;;;37.67;;
1747;SDS011;871;47.034;15.394;2022-11-15T09:14:35;129.40;;;40.03;;
1747;SDS011;871;47.034;15.394;2022-11-15T09:17:01;136.03;;;41.90;;
1747;SDS011;871;47.034;15.394;2022-11-15T09:19:27;113.87;;;38.00;;
1747;SDS011;871;47.034;15.394;2022-11-15T09:21:53;133.30;;;42.20;;
1747;SDS011;871;47.034;15.394;2022-11-15T09:24:19;125.70;;;36.20;;
1747;SDS011;871;47.034;15.394;2022-11-15T09:26:49;120.47;;;36.27;;
1747;SDS011;871;47.034;15.394;2022-11-15T09:29:15;120.93;;;35.20;;
1747;SDS011;871;47.034;15.394;2022-11-15T09:31:41;124.73;;;37.17;;
1747;SDS011;871;47.034;15.394;2022-11-15T09:34:07;122.90;;;37.23;;
1747;SDS011;871;47.034;15.394;2022-11-15T09:36:33;116.43;;;34.67;;
1747;SDS011;871;47.034;15.394;2022-11-15T09:38:59;114.07;;;33.30;;
1747;SDS011;871;47.034;15.394;2022-11-15T09:41:38;111.67;;;33.40;;
1747;SDS011;871;47.034;15.394;2022-11-15T09:49:24;102.83;;;31.77;;
1747;SDS011;871;47.034;15.394;2022-11-15T09:51:51;89.13;;;27.00;;
1747;SDS011;871;47.034;15.394;2022-11-15T10:02:27;95.83;;;29.70;;
1747;SDS011;871;47.034;15.394;2022-11-15T10:04:57;91.23;;;28.43;;
1747;SDS011;871;47.034;15.394;2022-11-15T10:07:28;91.20;;;28.87;;
1747;SDS011;871;47.034;15.394;2022-11-15T10:09:59;95.70;;;26.17;;
1747;SDS011;871;47.034;15.394;2022-11-15T10:12:28;97.70;;;28.97;;
1747;SDS011;871;47.034;15.394;2022-11-15T10:15:00;90.27;;;26.63;;
1747;SDS011;871;47.034;15.394;2022-11-15T10:20:07;84.17;;;26.60;;
1747;SDS011;871;47.034;15.394;2022-11-15T10:22:49;93.30;;;28.50;;
1747;SDS011;871;47.034;15.394;2022-11-15T10:27:47;101.97;;;31.30;;
1747;SDS011;871;47.034;15.394;2022-11-15T10:30:18;86.63;;;26.60;;
1747;SDS011;871;47.034;15.394;2022-11-15T10:32:45;98.80;;;28.77;;
1747;SDS011;871;47.034;15.394;2022-11-15T10:35:27;94.37;;;28.07;;
1747;SDS011;871;47.034;15.394;2022-11-15T10:38:07;93.53;;;25.50;;
1747;SDS011;871;47.034;15.394;2022-11-15T10:40:33;84.47;;;26.90;;
1747;SDS011;871;47.034;15.394;2022-11-15T10:45:35;75.40;;;22.63;;
1747;SDS011;871;47.034;15.394;2022-11-15T10:50:41;81.90;;;24.57;;
1747;SDS011;871;47.034;15.394;2022-11-15T10:55:49;87.93;;;27.27;;
1747;SDS011;871;47.034;15.394;2022-11-15T10:58:20;77.00;;;23.37;;
1747;SDS011;871;47.034;15.394;2022-11-15T11:00:47;80.13;;;25.57;;
1747;SDS011;871;47.034;15.394;2022-11-15T11:03:29;81.83;;;23.47;;
1747;SDS011;871;47.034;15.394;2022-11-15T11:06:16;75.97;;;22.70;;
1747;SDS011;871;47.034;15.394;2022-11-15T11:11:20;85.03;;;27.17;;
1747;SDS011;871;47.034;15.394;2022-11-15T11:13:46;79.77;;;24.73;;
1747;SDS011;871;47.034;15.394;2022-11-15T11:21:26;81.00;;;25.20;;
1747;SDS011;871;47.034;15.394;2022-11-15T11:26:52;81.30;;;23.73;;
1747;SDS011;871;47.034;15.394;2022-11-15T11:47:12;76.40;;;21.93;;
1747;SDS011;871;47.034;15.394;2022-11-15T11:49:50;83.60;;;22.73;;
1747;SDS011;871;47.034;15.394;2022-11-15T11:57:24;79.77;;;25.50;;
1747;SDS011;871;47.034;15.394;2022-11-15T11:59:53;89.03;;;27.17;;
1747;SDS011;871;47.034;15.394;2022-11-15T12:02:30;86.97;;;26.77;;
1747;SDS011;871;47.034;15.394;2022-11-15T12:07:42;92.40;;;28.30;;
1747;SDS011;871;47.034;15.394;2022-11-15T12:10:26;83.73;;;26.80;;
1747;SDS011;871;47.034;15.394;2022-11-15T12:13:16;74.30;;;26.17;;
1747;SDS011;871;47.034;15.394;2022-11-15T12:15:52;84.47;;;24.57;;
1747;SDS011;871;47.034;15.394;2022-11-15T12:18:20;75.40;;;22.17;;
1747;SDS011;871;47.034;15.394;2022-11-15T12:23:21;82.37;;;25.20;;
1747;SDS011;871;47.034;15.394;2022-11-15T12:25:50;79.53;;;22.43;;
1747;SDS011;871;47.034;15.394;2022-11-15T12:33:34;88.83;;;25.80;;
1747;SDS011;871;47.034;15.394;2022-11-15T12:38:50;90.13;;;27.27;;
1747;SDS011;871;47.034;15.394;2022-11-15T12:41:18;85.57;;;24.27;;
1747;SDS011;871;47.034;15.394;2022-11-15T12:43:47;89.17;;;26.40;;
1747;SDS011;871;47.034;15.394;2022-11-15T12:46:19;95.30;;;30.90;;
1747;SDS011;871;47.034;15.394;2022-11-15T12:48:47;84.63;;;26.87;;
1747;SDS011;871;47.034;15.394;2022-11-15T12:51:16;97.37;;;28.00;;
1747;SDS011;871;47.034;15.394;2022-11-15T12:53:42;81.30;;;26.87;;
1747;SDS011;871;47.034;15.394;2022-11-15T13:01:07;82.10;;;26.70;;
1747;SDS011;871;47.034;15.394;2022-11-15T13:03:33;78.13;;;25.20;;
1747;SDS011;871;47.034;15.394;2022-11-15T13:06:01;80.70;;;26.33;;
1747;SDS011;871;47.034;15.394;2022-11-15T13:08:46;75.30;;;25.10;;
1747;SDS011;871;47.034;15.394;2022-11-15T13:14:02;77.23;;;23.53;;
1747;SDS011;871;47.034;15.394;2022-11-15T13:16:48;65.17;;;21.13;;
1747;SDS011;871;47.034;15.394;2022-11-15T13:19:14;70.17;;;22.70;;
1747;SDS011;871;47.034;15.394;2022-11-15T13:21:47;73.93;;;21.60;;
1747;SDS011;871;47.034;15.394;2022-11-15T13:24:32;74.67;;;22.17;;
1747;SDS011;871;47.034;15.394;2022-11-15T13:26:58;74.43;;;24.20;;
1747;SDS011;871;47.034;15.394;2022-11-15T13:29:24;74.00;;;22.23;;
1747;SDS011;871;47.034;15.394;2022-11-15T13:31:50;70.27;;;21.40;;
1747;SDS011;871;47.034;15.394;2022-11-15T13:34:35;71.10;;;20.77;;
1747;SDS011;871;47.034;15.394;2022-11-15T13:37:02;71.80;;;21.50;;
1747;SDS011;871;47.034;15.394;2022-11-15T13:39:32;72.27;;;22.07;;
1747;SDS011;871;47.034;15.394;2022-11-15T13:41:59;78.83;;;22.40;;
1747;SDS011;871;47.034;15.394;2022-11-15T13:44:29;72.20;;;20.70;;
1747;SDS011;871;47.034;15.394;2022-11-15T13:49:32;77.13;;;22.93;;
1747;SDS011;871;47.034;15.394;2022-11-15T13:51:59;73.13;;;21.10;;
1747;SDS011;871;47.034;15.394;2022-11-15T13:57:09;70.33;;;20.03;;
1747;SDS011;871;47.034;15.394;2022-11-15T13:59:37;74.13;;;21.40;;
1747;SDS011;871;47.034;15.394;2022-11-15T14:02:11;75.50;;;22.93;;
1747;SDS011;871;47.034;15.394;2022-11-15T14:04:38;75.93;;;23.90;;
1747;SDS011;871;47.034;15.394;2022-11-15T14:07:05;76.23;;;22.73;;
1747;SDS011;871;47.034;15.394;2022-11-15T14:12:00;74.40;;;22.67;;
1747;SDS011;871;47.034;15.394;2022-11-15T14:14:27;67.47;;;20.77;;
1747;SDS011;871;47.034;15.394;2022-11-15T14:16:56;69.00;;;22.27;;
1747;SDS011;871;47.034;15.394;2022-11-15T14:24:36;62.23;;;19.73;;
1747;SDS011;871;47.034;15.394;2022-11-15T14:27:19;62.57;;;19.70;;
1747;SDS011;871;47.034;15.394;2022-11-15T14:29:46;72.47;;;21.13;;
1747;SDS011;871;47.034;15.394;2022-11-15T14:32:17;69.47;;;20.87;;
1747;SDS011;871;47.034;15.394;2022-11-15T14:34:44;69.10;;;18.30;;
1747;SDS011;871;47.034;15.394;2022-11-15T14:39:42;64.43;;;19.30;;
1747;SDS011;871;47.034;15.394;2022-11-15T14:42:09;68.30;;;22.60;;
1747;SDS011;871;47.034;15.394;2022-11-15T14:44:35;68.13;;;21.53;;
1747;SDS011;871;47.034;15.394;2022-11-15T14:47:02;65.70;;;20.30;;
1747;SDS011;871;47.034;15.394;2022-11-15T14:49:28;64.90;;;20.07;;
1747;SDS011;871;47.034;15.394;2022-11-15T14:51:54;67.10;;;19.40;;
1747;SDS011;871;47.034;15.394;2022-11-15T14:54:20;64.97;;;19.53;;
1747;SDS011;871;47.034;15.394;2022-11-15T14:56:46;72.43;;;19.77;;
1747;SDS011;871;47.034;15.394;2022-11-15T14:59:12;67.43;;;19.40;;
1747;SDS011;871;47.034;15.394;2022-11-15T15:01:38;69.63;;;18.97;;
1747;SDS011;871;47.034;15.394;2022-11-15T15:04:05;64.80;;;19.27;;
1747;SDS011;871;47.034;15.394;2022-11-15T15:06:31;69.17;;;21.33;;
1747;SDS011;871;47.034;15.394;2022-11-15T15:08:58;64.07;;;18.13;;
1747;SDS011;871;47.034;15.394;2022-11-15T15:11:28;63.37;;;19.63;;
1747;SDS011;871;47.034;15.394;2022-11-15T15:13:55;67.17;;;18.40;;
1747;SDS011;871;47.034;15.394;2022-11-15T15:16:23;68.97;;;20.80;;
1747;SDS011;871;47.034;15.394;2022-11-15T15:18:49;67.60;;;20.90;;
1747;SDS011;871;47.034;15.394;2022-11-15T15:21:22;64.70;;;18.13;;
1747;SDS011;871;47.034;15.394;2022-11-15T15:23:50;64.00;;;18.40;;
1747;SDS011;871;47.034;15.394;2022-11-15T15:26:17;68.13;;;18.27;;
1747;SDS011;871;47.034;15.394;2022-11-15T15:28:43;64.67;;;18.33;;
1747;SDS011;871;47.034;15.394;2022-11-15T15:31:09;63.30;;;19.00;;
1747;SDS011;871;47.034;15.394;2022-11-15T15:33:36;70.80;;;17.83;;
1747;SDS011;871;47.034;15.394;2022-11-15T15:36:02;67.20;;;17.77;;
1747;SDS011;871;47.034;15.394;2022-11-15T15:38:29;63.00;;;18.80;;
1747;SDS011;871;47.034;15.394;2022-11-15T15:40:55;70.17;;;19.67;;
1747;SDS011;871;47.034;15.394;2022-11-15T15:43:21;73.30;;;19.13;;
1747;SDS011;871;47.034;15.394;2022-11-15T15:45:47;62.33;;;18.73;;
1747;SDS011;871;47.034;15.394;2022-11-15T15:48:14;60.50;;;17.47;;
1747;SDS011;871;47.034;15.394;2022-11-15T15:50:41;64.07;;;19.37;;
1747;SDS011;871;47.034;15.394;2022-11-15T15:53:10;64.73;;;19.03;;
1747;SDS011;871;47.034;15.394;2022-11-15T15:55:37;60.80;;;18.27;;
1747;SDS011;871;47.034;15.394;2022-11-15T15:58:03;64.27;;;18.77;;
1747;SDS011;871;47.034;15.394;2022-11-15T16:00:30;60.67;;;18.57;;
1747;SDS011;871;47.034;15.394;2022-11-15T16:02:58;65.23;;;19.20;;
1747;SDS011;871;47.034;15.394;2022-11-15T16:05:24;71.73;;;19.50;;
1747;SDS011;871;47.034;15.394;2022-11-15T16:07:50;69.90;;;19.30;;
1747;SDS011;871;47.034;15.394;2022-11-15T16:10:18;61.70;;;19.07;;
1747;SDS011;871;47.034;15.394;2022-11-15T16:12:45;61.63;;;18.43;;
1747;SDS011;871;47.034;15.394;2022-11-15T16:15:11;62.07;;;18.23;;
1747;SDS011;871;47.034;15.394;2022-11-15T16:17:38;58.47;;;16.77;;
1747;SDS011;871;47.034;15.394;2022-11-15T16:20:06;60.67;;;17.30;;
1747;SDS011;871;47.034;15.394;2022-11-15T16:22:32;58.07;;;16.20;;
1747;SDS011;871;47.034;15.394;2022-11-15T16:24:58;59.47;;;16.73;;
1747;SDS011;871;47.034;15.394;2022-11-15T16:27:24;64.80;;;17.87;;
1747;SDS011;871;47.034;15.394;2022-11-15T16:29:50;65.50;;;21.50;;
1747;SDS011;871;47.034;15.394;2022-11-15T16:32:16;64.77;;;18.70;;
1747;SDS011;871;47.034;15.394;2022-11-15T16:34:42;65.77;;;17.57;;
1747;SDS011;871;47.034;15.394;2022-11-15T16:37:13;63.70;;;19.30;;
1747;SDS011;871;47.034;15.394;2022-11-15T16:39:45;63.23;;;17.60;;
1747;SDS011;871;47.034;15.394;2022-11-15T16:42:11;59.97;;;16.10;;
1747;SDS011;871;47.034;15.394;2022-11-15T16:44:37;67.97;;;18.67;;
1747;SDS011;871;47.034;15.394;2022-11-15T16:47:03;66.27;;;17.83;;
1747;SDS011;871;47.034;15.394;2022-11-15T16:49:29;62.77;;;18.37;;
1747;SDS011;871;47.034;15.394;2022-11-15T16:51:55;58.40;;;16.67;;
1747;SDS011;871;47.034;15.394;2022-11-15T16:54:21;64.93;;;18.40;;
1747;SDS011;871;47.034;15.394;2022-11-15T16:56:48;65.83;;;18.27;;
1747;SDS011;871;47.034;15.394;2022-11-15T16:59:15;66.90;;;19.43;;
1747;SDS011;871;47.034;15.394;2022-11-15T17:01:42;63.30;;;18.47;;
1747;SDS011;871;47.034;15.394;2022-11-15T17:04:15;69.90;;;19.93;;
1747;SDS011;871;47.034;15.394;2022-11-15T17:06:42;69.63;;;20.60;;
1747;SDS011;871;47.034;15.394;2022-11-15T17:09:18;69.27;;;20.87;;
1747;SDS011;871;47.034;15.394;2022-11-15T17:11:45;67.73;;;20.40;;
1747;SDS011;871;47.034;15.394;2022-11-15T17:14:11;65.70;;;20.47;;
1747;SDS011;871;47.034;15.394;2022-11-15T17:16:37;66.33;;;19.37;;
1747;SDS011;871;47.034;15.394;2022-11-15T17:19:16;69.67;;;21.53;;
1747;SDS011;871;47.034;15.394;2022-11-15T17:21:45;75.23;;;23.37;;
1747;SDS011;871;47.034;15.394;2022-11-15T17:24:14;69.07;;;22.23;;
1747;SDS011;871;47.034;15.394;2022-11-15T17:26:41;71.60;;;22.37;;
1747;SDS011;871;47.034;15.394;2022-11-15T17:29:07;64.27;;;20.13;;
1747;SDS011;871;47.034;15.394;2022-11-15T17:31:34;68.53;;;20.20;;
1747;SDS011;871;47.034;15.394;2022-11-15T17:34:00;65.47;;;20.50;;
1747;SDS011;871;47.034;15.394;2022-11-15T17:36:27;69.50;;;20.63;;
1747;SDS011;871;47.034;15.394;2022-11-15T17:38:53;72.73;;;20.50;;
1747;SDS011;871;47.034;15.394;2022-11-15T17:41:22;68.50;;;21.80;;
1747;SDS011;871;47.034;15.394;2022-11-15T17:43:49;67.77;;;21.77;;
1747;SDS011;871;47.034;15.394;2022-11-15T17:46:16;66.50;;;20.13;;
1747;SDS011;871;47.034;15.394;2022-11-15T17:48:43;60.97;;;19.13;;
1747;SDS011;871;47.034;15.394;2022-11-15T17:51:10;71.97;;;20.80;;
1747;SDS011;871;47.034;15.394;2022-11-15T17:53:37;65.10;;;20.60;;
1747;SDS011;871;47.034;15.394;2022-11-15T17:56:05;65.40;;;21.17;;
1747;SDS011;871;47.034;15.394;2022-11-15T17:58:31;66.47;;;21.13;;
1747;SDS011;871;47.034;15.394;2022-11-15T18:03:55;76.33;;;23.70;;
1747;SDS011;871;47.034;15.394;2022-11-15T18:06:21;82.57;;;26.33;;
1747;SDS011;871;47.034;15.394;2022-11-15T18:08:49;72.30;;;22.63;;
1747;SDS011;871;47.034;15.394;2022-11-15T18:11:24;72.93;;;22.20;;
1747;SDS011;871;47.034;15.394;2022-11-15T18:13:53;65.50;;;20.27;;
1747;SDS011;871;47.034;15.394;2022-11-15T18:16:21;70.90;;;21.77;;
1747;SDS011;871;47.034;15.394;2022-11-15T18:18:49;68.77;;;21.37;;
1747;SDS011;871;47.034;15.394;2022-11-15T18:21:19;72.43;;;20.20;;
1747;SDS011;871;47.034;15.394;2022-11-15T18:23:47;70.30;;;21.67;;
1747;SDS011;871;47.034;15.394;2022-11-15T18:26:15;75.10;;;24.07;;
1747;SDS011;871;47.034;15.394;2022-11-15T18:28:42;69.13;;;20.37;;
1747;SDS011;871;47.034;15.394;2022-11-15T18:33:37;69.23;;;22.10;;
1747;SDS011;871;47.034;15.394;2022-11-15T18:36:05;68.70;;;21.57;;
1747;SDS011;871;47.034;15.394;2022-11-15T18:38:32;73.57;;;22.20;;
1747;SDS011;871;47.034;15.394;2022-11-15T18:41:05;68.50;;;22.17;;
1747;SDS011;871;47.034;15.394;2022-11-15T18:43:32;69.60;;;22.37;;
1747;SDS011;871;47.034;15.394;2022-11-15T18:46:05;70.93;;;21.97;;
1747;SDS011;871;47.034;15.394;2022-11-15T18:48:33;71.60;;;22.20;;
1747;SDS011;871;47.034;15.394;2022-11-15T18:51:08;68.53;;;21.00;;
1747;SDS011;871;47.034;15.394;2022-11-15T18:53:38;68.50;;;21.00;;
1747;SDS011;871;47.034;15.394;2022-11-15T18:56:09;70.73;;;22.80;;
1747;SDS011;871;47.034;15.394;2022-11-15T18:58:36;68.30;;;21.70;;
1747;SDS011;871;47.034;15.394;2022-11-15T19:01:07;73.37;;;22.40;;
1747;SDS011;871;47.034;15.394;2022-11-15T19:03:33;81.83;;;23.30;;
1747;SDS011;871;47.034;15.394;2022-11-15T19:06:07;70.80;;;21.87;;
1747;SDS011;871;47.034;15.394;2022-11-15T19:08:34;67.10;;;20.63;;
1747;SDS011;871;47.034;15.394;2022-11-15T19:11:04;65.93;;;20.47;;
1747;SDS011;871;47.034;15.394;2022-11-15T19:13:32;71.07;;;20.93;;
1747;SDS011;871;47.034;15.394;2022-11-15T19:16:00;67.90;;;19.87;;
1747;SDS011;871;47.034;15.394;2022-11-15T19:18:27;69.97;;;21.03;;
1747;SDS011;871;47.034;15.394;2022-11-15T19:20:54;68.60;;;21.63;;
1747;SDS011;871;47.034;15.394;2022-11-15T19:23:21;68.67;;;23.50;;
1747;SDS011;871;47.034;15.394;2022-11-15T19:25:54;66.10;;;19.00;;
1747;SDS011;871;47.034;15.394;2022-11-15T19:28:23;73.83;;;22.00;;
1747;SDS011;871;47.034;15.394;2022-11-15T19:30:50;68.40;;;21.37;;
1747;SDS011;871;47.034;15.394;2022-11-15T19:33:17;66.37;;;22.23;;
1747;SDS011;871;47.034;15.394;2022-11-15T19:35:45;74.03;;;20.20;;
1747;SDS011;871;47.034;15.394;2022-11-15T19:38:13;69.73;;;20.17;;
1747;SDS011;871;47.034;15.394;2022-11-15T19:40:39;73.50;;;22.27;;
1747;SDS011;871;47.034;15.394;2022-11-15T19:43:05;67.13;;;18.40;;
1747;SDS011;871;47.034;15.394;2022-11-15T19:45:32;69.83;;;20.57;;
1747;SDS011;871;47.034;15.394;2022-11-15T19:47:58;84.00;;;21.67;;
1747;SDS011;871;47.034;15.394;2022-11-15T19:50:24;67.90;;;19.67;;
1747;SDS011;871;47.034;15.394;2022-11-15T19:52:51;68.27;;;20.43;;
1747;SDS011;871;47.034;15.394;2022-11-15T19:55:17;66.10;;;20.33;;
1747;SDS011;871;47.034;15.394;2022-11-15T19:57:43;61.47;;;20.13;;
1747;SDS011;871;47.034;15.394;2022-11-15T20:00:09;62.93;;;18.60;;
1747;SDS011;871;47.034;15.394;2022-11-15T20:02:36;60.40;;;18.87;;
1747;SDS011;871;47.034;15.394;2022-11-15T20:05:02;66.93;;;18.60;;
1747;SDS011;871;47.034;15.394;2022-11-15T20:07:28;66.10;;;18.40;;
1747;SDS011;871;47.034;15.394;2022-11-15T20:09:54;66.40;;;18.70;;
1747;SDS011;871;47.034;15.394;2022-11-15T20:12:21;66.97;;;17.47;;
1747;SDS011;871;47.034;15.394;2022-11-15T20:14:47;69.53;;;19.03;;
1747;SDS011;871;47.034;15.394;2022-11-15T20:17:13;64.63;;;17.43;;
1747;SDS011;871;47.034;15.394;2022-11-15T20:19:40;59.07;;;15.37;;
1747;SDS011;871;47.034;15.394;2022-11-15T20:22:06;62.90;;;18.07;;
1747;SDS011;871;47.034;15.394;2022-11-15T20:24:32;64.07;;;18.20;;
1747;SDS011;871;47.034;15.394;2022-11-15T20:26:59;70.73;;;19.60;;
1747;SDS011;871;47.034;15.394;2022-11-15T20:29:25;67.60;;;18.80;;
1747;SDS011;871;47.034;15.394;2022-11-15T20:31:51;65.60;;;18.20;;
1747;SDS011;871;47.034;15.394;2022-11-15T20:34:17;62.67;;;18.00;;
1747;SDS011;871;47.034;15.394;2022-11-15T20:36:44;64.93;;;17.93;;
1747;SDS011;871;47.034;15.394;2022-11-15T20:39:11;65.03;;;18.50;;
1747;SDS011;871;47.034;15.394;2022-11-15T20:41:37;60.67;;;19.43;;
1747;SDS011;871;47.034;15.394;2022-11-15T20:44:03;65.13;;;17.37;;
1747;SDS011;871;47.034;15.394;2022-11-15T20:46:29;62.47;;;16.60;;
1747;SDS011;871;47.034;15.394;2022-11-15T20:48:57;65.33;;;17.83;;
1747;SDS011;871;47.034;15.394;2022-11-15T20:51:23;64.67;;;17.60;;
1747;SDS011;871;47.034;15.394;2022-11-15T20:53:49;63.07;;;17.70;;
1747;SDS011;871;47.034;15.394;2022-11-15T20:56:19;65.20;;;16.83;;
1747;SDS011;871;47.034;15.394;2022-11-15T20:58:46;66.87;;;18.37;;
1747;SDS011;871;47.034;15.394;2022-11-15T21:01:14;61.00;;;15.90;;
1747;SDS011;871;47.034;15.394;2022-11-15T21:03:41;61.90;;;14.77;;
1747;SDS011;871;47.034;15.394;2022-11-15T21:06:08;65.50;;;16.40;;
1747;SDS011;871;47.034;15.394;2022-11-15T21:08:34;60.17;;;16.03;;
1747;SDS011;871;47.034;15.394;2022-11-15T21:11:19;61.00;;;14.33;;
1747;SDS011;871;47.034;15.394;2022-11-15T21:14:04;58.00;;;14.90;;
1747;SDS011;871;47.034;15.394;2022-11-15T21:16:30;58.20;;;14.47;;
1747;SDS011;871;47.034;15.394;2022-11-15T21:18:56;65.27;;;18.37;;
1747;SDS011;871;47.034;15.394;2022-11-15T21:21:22;61.10;;;16.30;;
1747;SDS011;871;47.034;15.394;2022-11-15T21:23:48;58.87;;;17.07;;
1747;SDS011;871;47.034;15.394;2022-11-15T21:26:14;58.90;;;16.07;;
1747;SDS011;871;47.034;15.394;2022-11-15T21:28:41;55.80;;;14.17;;
1747;SDS011;871;47.034;15.394;2022-11-15T21:31:07;58.87;;;15.13;;